Amherst, Colorado
Current Conditions -  °F | °C
As of 9:15 AM on Friday 21 Nov 2014 (Local Time) from KHEQ Reporting Station
Clear Clear  
Wind Chill: 38°   Ceiling: Unl
Heat Index: 41°   Visibility: 10mi
Dew Point: 27°   Wind: 5mph
Humidity: 57%   Direction: 240°WSW
Pressure: 29.98"   Gusts: NA
Location:  40.68°N, 102.17°W
Report Text: KHEQ 211615Z AUTO 24004KT 10SM CLR 05/M03 A2998 RMK AO2
Loading
Personal Weather Stations






























Interactive Weather Map New forecast layout! Learn more

10-Day Weather Forecast

Advertisements
Track Severe Weather on mobile